• Join FlightAware (Why Join?)
  • Login
  • US Flag 
03:14AM EDT


 

Airport Tracker/Info


-or-


 

Live Flight TrackerFlight Track Log ✈ BAW397 ✈ 05-May-2012 ✈ EBBR / BRU - EGLL / LHR

Flight Track Log - Related Links

Times and Time Zones

All times are in EDT time to prevent confusion due to time zone crossing. See the BAW397 flight status page for this flight to view local times or setup timezone preferences in your user account.

Time Position Orientation Groundspeed Altitude Reporting Facility
EDT Latitude Longitude Course Direction KTS MPH feet Rate Location/Type
11:49AM 51.5815 1.8147 283° West 410 472 21,900  Level FlightAware ADS-B
11:50AM 51.5965 1.7106 283° West 403 464 21,200 -1,080 Descending FlightAware ADS-B
11:52AM 51.6351 1.4409 283° West 364 419 19,600 -1,080 Descending FlightAware ADS-B
11:52AM 51.6465 1.3597 283° West 352 405 19,000 -1,320 Descending FlightAware ADS-B
11:53AM 51.6577 1.2802 280° West 345 397 18,200 -1,500 Descending FlightAware ADS-B
11:53AM 51.6611 1.2495 270° West 344 396 17,900 -1,500 Descending FlightAware ADS-B
11:54AM 51.6613 1.1581 269° West 336 387 17,000 -1,560 Descending FlightAware ADS-B
11:54AM 51.6604 1.0819 269° West 332 382 16,200 -1,560 Descending FlightAware ADS-B
11:55AM 51.6595 1.0059 269° West 325 374 15,400 -1,260 Descending FlightAware ADS-B
11:55AM 51.6586 0.9323 269° West 325 374 14,900 -1,020 Descending FlightAware ADS-B
11:56AM 51.6576 0.8582 269° West 320 368 14,400 -1,020 Descending FlightAware ADS-B
11:56AM 51.6566 0.7863 268° West 322 371 13,900 -1,020 Descending FlightAware ADS-B
11:57AM 51.6556 0.7276 269° West 319 367 13,500 -780 Descending FlightAware ADS-B
11:57AM 51.6545 0.6484 269° West 316 364 13,200 -780 Descending FlightAware ADS-B
11:58AM 51.6533 0.5699 269° West 311 358 12,700 -780 Descending FlightAware ADS-B
11:58AM 51.6521 0.4959 268° West 309 356 12,400 -780 Descending FlightAware ADS-B
11:59AM 51.6508 0.4259 268° West 305 351 11,900 -1,020 Descending FlightAware ADS-B
11:59AM 51.6496 0.3557 268° West 304 350 11,400 -1,020 Descending FlightAware ADS-B
12:00PM 51.6484 0.2860 268° West 301 346 10,900 -1,020 Descending FlightAware ADS-B
12:00PM 51.6471 0.2185 268° West 301 346 10,400 -1,020 Descending FlightAware ADS-B
12:01PM 51.6461 0.1654 268° West 301 346 10,000 -1,080 Descending FlightAware ADS-B
12:01PM 51.6455 0.1319 269° West 300 345 9,700 -1,020 Descending FlightAware ADS-B
12:01PM 51.6451 0.0980 269° West 299 344 9,500 -1,020 Descending FlightAware ADS-B
12:01PM 51.6448 0.0629 269° West 299 344 9,200 -1,020 Descending FlightAware ADS-B
12:02PM 51.6443 0.0283 269° West 299 344 9,000 -480 Descending FlightAware ADS-B
12:02PM 51.6440 0.0034 269° West 300 345 9,000  Level FlightAware ADS-B
12:02PM 51.6436 -0.0301 269° West 301 346 9,000 -420 Level FlightAware ADS-B
12:02PM 51.6431 -0.0694 269° West 298 343 8,800 -780 Descending FlightAware ADS-B
12:03PM 51.6427 -0.1033 269° West 296 341 8,600 -1,020 Descending FlightAware ADS-B
12:03PM 51.6422 -0.1375 269° West 294 338 8,300 -960 Descending FlightAware ADS-B
12:03PM 51.6419 -0.1698 269° West 293 337 8,100 -600 Descending FlightAware ADS-B
12:03PM 51.6415 -0.2058 269° West 292 336 8,000 -240 Descending FlightAware ADS-B
12:04PM 51.6411 -0.2427 269° West 293 337 8,000  Level FlightAware ADS-B
12:04PM 51.6407 -0.2797 269° West 293 337 8,000  Level FlightAware ADS-B
12:04PM 51.6405 -0.2927 266° West 292 336 8,000  Level FlightAware ADS-B
12:04PM 51.6401 -0.3026 265° West 289 333 8,000  Level FlightAware ADS-B
12:04PM 51.6397 -0.3098 262° West 286 329 8,000  Level FlightAware ADS-B
12:04PM 51.6384 -0.3239 259° West 277 319 8,000  Level FlightAware ADS-B
12:05PM 51.6346 -0.3540 258° West 261 300 8,000  Level FlightAware ADS-B
12:05PM 51.6302 -0.3887 259° West 244 281 8,000  Level FlightAware ADS-B
12:05PM 51.6267 -0.4169 258° West 237 273 8,000 -600 Level FlightAware ADS-B
12:05PM 51.6233 -0.4436 258° West 239 275 7,700 -1,320 Descending FlightAware ADS-B
12:06PM 51.6196 -0.4724 258° West 239 275 7,300 -1,380 Descending FlightAware ADS-B
12:06PM 51.6182 -0.4828 258° West 239 275 7,200 -600 Descending FlightAware ADS-B
12:06PM 51.6151 -0.5064 258° West 234 269 7,100 -900 Descending FlightAware ADS-B
12:06PM 51.6121 -0.5294 258° West 232 267 6,800 -1,380 Descending FlightAware ADS-B
12:07PM 51.6089 -0.5543 257° West 232 267 6,500 -1,320 Descending FlightAware ADS-B
12:07PM 51.6069 -0.5685 258° West 234 269 6,300 -1,680 Descending FlightAware ADS-B
12:07PM 51.6063 -0.5732 258° West 235 270 6,200 -1,800 Descending FlightAware ADS-B
12:07PM 51.6025 -0.6008 257° West 241 277 5,700 -1,680 Descending FlightAware ADS-B
12:07PM 51.5981 -0.6320 255° West 243 280 5,300 -1,200 Descending FlightAware ADS-B
12:07PM 51.5972 -0.6376 252° West 243 280 5,300 -720 Level FlightAware ADS-B
12:07PM 51.5953 -0.6469 249° West 243 280 5,200 -1,320 Descending FlightAware ADS-B
12:08PM 51.5917 -0.6616 247° West 242 278 5,000 -780 Descending FlightAware ADS-B
12:08PM 51.5849 -0.6868 246° West 246 283 4,900 -600 Descending FlightAware ADS-B
12:08PM 51.5777 -0.7128 246° West 250 288 4,700 -600 Descending FlightAware ADS-B
12:08PM 51.5704 -0.7396 246° West 249 287 4,600 -480 Descending FlightAware ADS-B
12:08PM 51.5658 -0.7561 246° West 248 285 4,500 -360 Descending FlightAware ADS-B
12:09PM 51.5619 -0.7702 241° Southwest 247 284 4,500 -480 Level FlightAware ADS-B
12:09PM 51.5599 -0.7759 236° Southwest 247 284 4,400 -900 Descending FlightAware ADS-B
12:09PM 51.5580 -0.7804 228° Southwest 246 283 4,400  Level FlightAware ADS-B
12:09PM 51.5550 -0.7858 219° Southwest 243 280 4,400  Level FlightAware ADS-B
12:09PM 51.5512 -0.7909 213° Southwest 240 276 4,400  Level FlightAware ADS-B
12:09PM 51.5483 -0.7939 205° Southwest 237 273 4,400 -900 Level FlightAware ADS-B
12:09PM 51.5446 -0.7967 198° South 232 267 4,300 -900 Descending FlightAware ADS-B
12:09PM 51.5411 -0.7986 191° South 229 264 4,300  Level FlightAware ADS-B
12:09PM 51.5366 -0.7999 186° South 225 259 4,300  Level FlightAware ADS-B
12:09PM 51.5334 -0.8005 182° South 220 253 4,300 -420 Level FlightAware ADS-B
12:09PM 51.5211 -0.8012 181° South 211 243 4,200 -480 Descending FlightAware ADS-B
12:10PM 51.5058 -0.8016 181° South 203 234 4,100 -480 Descending FlightAware ADS-B
12:10PM 51.4980 -0.8018 176° South 200 230 4,000 -540 Descending FlightAware ADS-B
12:10PM 51.4948 -0.8014 171° South 199 229 4,000  Level FlightAware ADS-B
12:10PM 51.4921 -0.8007 162° South 197 227 4,000 -1,020 Level FlightAware ADS-B
12:10PM 51.4896 -0.7994 153° Southeast 195 224 3,900 -900 Descending FlightAware ADS-B
12:10PM 51.4867 -0.7970 141° Southeast 190 219 3,900  Level FlightAware ADS-B
12:10PM 51.4844 -0.7941 131° Southeast 186 214 3,900  Level FlightAware ADS-B
12:10PM 51.4816 -0.7889 124° Southeast 184 212 3,900  Level FlightAware ADS-B
12:10PM 51.4801 -0.7853 110° East 182 209 3,900 -720 Level FlightAware ADS-B
12:10PM 51.4785 -0.7781 99° East 178 205 3,800 -720 Descending FlightAware ADS-B
12:10PM 51.4771 -0.7646 98° East 179 206 3,700 -360 Descending FlightAware ADS-B
12:11PM 51.4763 -0.7549 95° East 176 203 3,700 -600 Level FlightAware ADS-B
12:11PM 51.4760 -0.7497 90° East 179 206 3,600 -900 Descending FlightAware ADS-B
12:11PM 51.4760 -0.7452 88° East 181 208 3,600 -900 Level FlightAware ADS-B
12:11PM 51.4761 -0.7400 86° East 182 209 3,500 -1,500 Descending FlightAware ADS-B
12:11PM 51.4766 -0.7290 90° East 182 209 3,300 -1,140 Descending FlightAware ADS-B
12:11PM 51.4766 -0.7249 91° East 183 211 3,300 -1,140 Level FlightAware ADS-B
12:11PM 51.4765 -0.7144 90° East 182 209 3,100 -1,260 Descending FlightAware ADS-B
12:11PM 51.4766 -0.6929 90° East 182 209 2,800 -960 Descending FlightAware ADS-B
12:12PM 51.4767 -0.6719 90° East 178 205 2,600 -960 Descending FlightAware ADS-B
12:12PM 51.4768 -0.6501 90° East 173 199 2,300 -1,140 Descending FlightAware ADS-B
12:12PM 51.4769 -0.6302 90° East 171 197 2,000 -840 Descending FlightAware ADS-B
12:12PM 51.4769 -0.6136 89° East 159 183 1,900 -840 Descending FlightAware ADS-B
12:13PM 51.4770 -0.5968 89° East 150 173 1,600 -1,020 Descending FlightAware ADS-B
12:13PM 51.4771 -0.5797 90° East 148 170 1,400 -720 Descending FlightAware ADS-B
12:14PM 51.4773 -0.5354 90° East 148 170 900 -660 Descending FlightAware ADS-B
12:21PM 51.4767 0.3315 270° West  Level Estimated
12:22PM 51.4772 0.2138 270° West  Level Estimated
12:23PM 51.4775 0.0962 270° West  Level Estimated
12:24PM 51.4777 -0.0215 270° West  Level Estimated
12:25PM 51.4778 -0.1392 270° West  Level Estimated
12:26PM 51.4778 -0.2569 270° West  Level Estimated
12:27PM 51.4777 -0.3746 270° West  Level Estimated
12:28PM 51.4774 -0.4923 270° West  Level Estimated